Bloomington, Indiana
Current Conditions -  °F | °C
As of 12:02 PM on Monday 22 Dec 2014 (Local Time) from KBMG Reporting Station
Overcast Overcast  
Wind Chill: 35°   Ceiling: 3200
Heat Index: 40°   Visibility: 9mi
Dew Point: 35°   Wind: 7mph
Humidity: 83%   Direction: 120°ESE
Pressure: 29.87"   Gusts: NA
Location:  39.17°N, 86.53°W
Report Text: KBMG 221702Z 12006KT 9SM SCT024 OVC032 04/02 A2987 RMK AO2 T00440017
Loading
Personal Weather Stations






























Interactive Weather Map New forecast layout! Learn more

10-Day Weather Forecast

Advertisements
Track Severe Weather on mobile